createdAt,value
2018-07-30T00:02:01.979Z,11.00
2018-07-30T00:04:30.321Z,10.40
2018-07-30T00:06:58.614Z,10.90
2018-07-30T00:09:26.836Z,11.20
2018-07-30T00:11:55.143Z,10.70
2018-07-30T00:14:23.398Z,11.87
2018-07-30T00:16:51.686Z,10.63
2018-07-30T00:19:19.962Z,9.87
2018-07-30T00:21:48.315Z,11.03
2018-07-30T00:24:16.609Z,11.80
2018-07-30T00:26:45.313Z,11.40
2018-07-30T00:29:13.421Z,11.27
2018-07-30T00:31:41.650Z,11.47
2018-07-30T00:34:09.950Z,12.17
2018-07-30T00:36:38.281Z,11.27
2018-07-30T00:39:09.238Z,10.80
2018-07-30T00:41:37.533Z,11.60
2018-07-30T00:44:06.006Z,10.80
2018-07-30T00:46:34.325Z,10.30
2018-07-30T00:49:02.572Z,11.27
2018-07-30T00:51:30.927Z,10.37
2018-07-30T00:53:59.359Z,11.40
2018-07-30T00:56:27.902Z,10.43
2018-07-30T00:58:56.211Z,10.73
2018-07-30T01:01:24.465Z,11.20
2018-07-30T01:03:52.837Z,10.63
2018-07-30T01:06:21.098Z,10.50
2018-07-30T01:08:49.354Z,10.70
2018-07-30T01:11:17.634Z,10.87
2018-07-30T01:13:46.110Z,11.20
2018-07-30T01:16:14.438Z,10.33
2018-07-30T01:18:42.425Z,10.13
2018-07-30T01:21:10.762Z,10.10
2018-07-30T01:23:39.869Z,10.30
2018-07-30T01:26:13.546Z,10.20
2018-07-30T01:28:41.830Z,11.17
2018-07-30T01:31:10.122Z,11.03
2018-07-30T01:33:38.449Z,11.50
2018-07-30T01:36:07.098Z,11.03
2018-07-30T01:38:35.478Z,11.50
2018-07-30T01:41:03.787Z,11.03
2018-07-30T01:43:33.609Z,11.10
2018-07-30T01:46:02.882Z,10.70
2018-07-30T01:48:31.136Z,12.50
2018-07-30T01:50:59.426Z,10.33
2018-07-30T01:53:27.968Z,11.27
2018-07-30T01:55:56.417Z,10.40
2018-07-30T01:58:24.749Z,11.87
2018-07-30T02:00:53.069Z,11.37
2018-07-30T02:03:21.298Z,10.90
2018-07-30T02:05:49.663Z,11.97
2018-07-30T02:08:17.997Z,11.70
2018-07-30T02:10:46.306Z,10.30
2018-07-30T02:13:14.747Z,10.83
2018-07-30T02:15:43.063Z,10.30
2018-07-30T02:18:11.325Z,11.80
2018-07-30T02:20:39.726Z,11.73
2018-07-30T02:23:08.191Z,11.90
2018-07-30T02:25:36.496Z,11.03
2018-07-30T02:28:04.896Z,11.57
2018-07-30T02:30:33.202Z,11.57
2018-07-30T02:39:45.788Z,10.90
2018-07-30T02:42:14.122Z,10.97
2018-07-30T02:44:42.366Z,10.27
2018-07-30T02:47:10.659Z,10.10
2018-07-30T02:49:38.928Z,10.33
2018-07-30T02:52:07.242Z,10.60
2018-07-30T02:54:35.555Z,10.13
2018-07-30T02:57:03.892Z,10.00
2018-07-30T02:59:32.210Z,10.77
2018-07-30T03:02:00.589Z,10.90
2018-07-30T03:04:28.874Z,10.63
2018-07-30T03:06:57.154Z,11.73
2018-07-30T03:09:25.480Z,10.40
2018-07-30T03:11:53.687Z,11.33
2018-07-30T03:14:21.934Z,11.10
2018-07-30T03:16:50.162Z,9.80
2018-07-30T03:19:18.381Z,11.20
2018-07-30T03:21:46.652Z,11.10
2018-07-30T03:24:14.942Z,10.00
2018-07-30T03:26:43.218Z,10.30
2018-07-30T03:29:11.659Z,10.73
2018-07-30T03:31:39.919Z,10.83
2018-07-30T03:34:08.178Z,9.90
2018-07-30T03:36:36.479Z,11.17
2018-07-30T03:39:07.029Z,11.87
2018-07-30T03:41:35.383Z,11.50
2018-07-30T03:44:03.819Z,10.20
2018-07-30T03:46:32.055Z,10.80
2018-07-30T03:49:00.326Z,10.57
2018-07-30T03:51:28.656Z,10.70
2018-07-30T03:53:57.862Z,10.83
2018-07-30T03:56:26.146Z,11.40
2018-07-30T03:58:54.442Z,11.87
2018-07-30T04:01:22.820Z,10.37
2018-07-30T04:03:51.326Z,10.13
2018-07-30T04:06:19.381Z,11.23
2018-07-30T04:08:47.670Z,10.27
2018-07-30T04:11:15.977Z,11.47
2018-07-30T04:13:44.258Z,10.90
2018-07-30T04:16:12.627Z,10.03
2018-07-30T04:18:40.859Z,9.50
2018-07-30T04:21:09.178Z,11.77
2018-07-30T04:23:37.455Z,11.40
2018-07-30T04:26:05.743Z,11.10
2018-07-30T04:28:34.047Z,11.00
2018-07-30T04:31:02.339Z,10.30
2018-07-30T04:33:30.669Z,11.10
2018-07-30T04:35:58.897Z,11.47
2018-07-30T04:38:27.221Z,10.40
2018-07-30T04:40:55.557Z,10.70
2018-07-30T04:43:23.834Z,10.60
2018-07-30T04:45:51.838Z,10.17
2018-07-30T04:48:20.114Z,11.23
2018-07-30T04:50:48.395Z,10.33
2018-07-30T04:53:16.665Z,10.77
2018-07-30T04:55:44.974Z,11.30
2018-07-30T04:58:13.298Z,9.97
2018-07-30T05:00:41.608Z,10.33
2018-07-30T05:03:09.853Z,10.67
2018-07-30T05:05:39.162Z,10.50
2018-07-30T05:08:07.445Z,11.00
2018-07-30T05:10:36.211Z,10.50
2018-07-30T05:13:04.515Z,10.53
2018-07-30T05:15:32.831Z,10.93
2018-07-30T05:18:01.158Z,12.13
2018-07-30T05:20:29.482Z,10.67
2018-07-30T05:22:57.752Z,11.80
2018-07-30T05:25:26.059Z,12.17
2018-07-30T05:27:54.299Z,12.47
2018-07-30T05:30:22.559Z,10.70
2018-07-30T05:32:50.831Z,12.77
2018-07-30T05:35:19.130Z,10.43
2018-07-30T05:37:47.447Z,11.53
2018-07-30T05:40:15.669Z,10.17
2018-07-30T05:42:43.863Z,10.73
2018-07-30T05:45:12.101Z,11.40
2018-07-30T05:47:40.596Z,10.60
2018-07-30T05:50:08.874Z,9.90
2018-07-30T05:52:37.031Z,10.60
2018-07-30T05:55:05.486Z,12.30
2018-07-30T05:57:33.683Z,9.43
2018-07-30T06:00:01.912Z,11.27
2018-07-30T06:02:30.450Z,11.40
2018-07-30T06:04:58.674Z,10.67
2018-07-30T06:07:26.952Z,10.60
2018-07-30T06:09:55.171Z,10.73
2018-07-30T06:12:23.405Z,11.73
2018-07-30T06:14:51.513Z,10.50
2018-07-30T06:17:20.697Z,9.87
2018-07-30T06:19:48.636Z,10.30
2018-07-30T06:22:16.842Z,9.10
2018-07-30T06:24:45.553Z,8.80
2018-07-30T06:27:14.555Z,8.37
2018-07-30T06:29:42.718Z,8.53
2018-07-30T06:32:11.978Z,12.17
2018-07-30T06:34:40.293Z,8.63
2018-07-30T06:37:08.685Z,7.60
2018-07-30T06:39:37.053Z,9.10
2018-07-30T06:42:05.237Z,8.00
2018-07-30T06:44:33.553Z,7.37
2018-07-30T06:47:01.902Z,7.83
2018-07-30T06:49:30.111Z,7.40
2018-07-30T06:51:58.375Z,7.10
2018-07-30T06:54:26.657Z,6.90
2018-07-30T06:56:54.932Z,7.07
2018-07-30T06:59:23.235Z,8.00
2018-07-30T07:01:52.304Z,8.60
2018-07-30T07:04:20.786Z,8.50
2018-07-30T07:06:49.375Z,7.67
2018-07-30T07:09:17.677Z,7.27
2018-07-30T07:11:46.076Z,7.67
2018-07-30T07:14:14.371Z,6.43
2018-07-30T07:16:42.912Z,6.63
2018-07-30T07:19:11.002Z,8.43
2018-07-30T07:21:39.385Z,7.30
2018-07-30T07:24:07.606Z,7.97
2018-07-30T07:26:35.923Z,8.20
2018-07-30T07:29:04.354Z,7.60
2018-07-30T07:31:33.611Z,6.60
2018-07-30T07:34:01.959Z,7.20
2018-07-30T07:36:29.992Z,6.93
2018-07-30T07:38:58.339Z,7.70
2018-07-30T07:41:27.593Z,7.03
2018-07-30T07:43:55.872Z,7.00
2018-07-30T07:46:24.207Z,6.53
2018-07-30T07:48:52.547Z,7.50
2018-07-30T07:51:20.750Z,7.53
2018-07-30T07:53:49.214Z,7.47
2018-07-30T07:56:17.590Z,7.60
2018-07-30T07:58:46.040Z,6.40
2018-07-30T08:01:14.423Z,7.87
2018-07-30T08:03:42.779Z,7.63
2018-07-30T08:06:11.192Z,6.80
2018-07-30T08:08:39.507Z,6.97
2018-07-30T08:11:07.834Z,8.40
2018-07-30T08:13:36.136Z,10.60
2018-07-30T08:16:04.643Z,8.57
2018-07-30T08:18:33.025Z,7.60
2018-07-30T08:21:01.306Z,7.43
2018-07-30T08:23:29.770Z,7.27
2018-07-30T08:25:58.069Z,9.00
2018-07-30T08:28:26.384Z,8.53
2018-07-30T08:30:54.980Z,8.30
2018-07-30T08:33:23.391Z,7.10
2018-07-30T08:35:51.746Z,14.27
2018-07-30T08:38:20.016Z,9.57
2018-07-30T08:40:48.331Z,11.13
2018-07-30T08:43:16.570Z,7.03
2018-07-30T08:45:44.957Z,7.30
2018-07-30T08:48:13.300Z,6.90
2018-07-30T08:50:41.701Z,7.10
2018-07-30T08:53:10.222Z,6.23
2018-07-30T08:55:38.604Z,7.17
2018-07-30T08:58:06.949Z,6.10
2018-07-30T09:00:35.402Z,7.03
2018-07-30T09:03:03.882Z,8.43
2018-07-30T09:05:32.545Z,8.67
2018-07-30T09:08:00.887Z,6.90
2018-07-30T09:10:29.213Z,6.73
2018-07-30T09:12:57.659Z,6.30
2018-07-30T09:15:26.001Z,6.67
2018-07-30T09:17:54.507Z,6.70
2018-07-30T09:20:23.062Z,6.30
2018-07-30T09:22:52.059Z,7.47
2018-07-30T09:25:21.370Z,8.40
2018-07-30T09:27:49.964Z,8.60
2018-07-30T09:30:18.245Z,8.13
2018-07-30T09:32:46.524Z,7.10
2018-07-30T09:35:15.118Z,6.33
2018-07-30T09:37:43.427Z,6.93
2018-07-30T09:40:11.766Z,6.43
2018-07-30T09:42:40.091Z,6.60
2018-07-30T09:45:08.175Z,6.10
2018-07-30T09:47:36.485Z,7.47
2018-07-30T09:50:05.410Z,7.30
2018-07-30T09:52:33.798Z,8.40
2018-07-30T09:55:02.098Z,8.07
2018-07-30T09:57:30.719Z,7.60
2018-07-30T09:59:59.125Z,8.40
2018-07-30T10:02:27.808Z,7.20
2018-07-30T10:04:56.192Z,7.30
2018-07-30T10:07:25.266Z,7.60
2018-07-30T10:09:53.932Z,7.80
2018-07-30T10:12:22.194Z,7.50
2018-07-30T10:14:50.521Z,6.97
2018-07-30T10:17:18.986Z,9.10
2018-07-30T10:19:47.299Z,8.50
2018-07-30T10:22:15.630Z,7.13
2018-07-30T10:24:43.896Z,9.47
2018-07-30T10:27:12.142Z,14.97
2018-07-30T10:29:40.694Z,8.73
2018-07-30T10:32:09.544Z,9.50
2018-07-30T10:34:37.925Z,8.07
2018-07-30T10:37:06.299Z,8.50
2018-07-30T10:39:34.647Z,7.77
2018-07-30T10:42:02.965Z,8.67
2018-07-30T10:44:31.377Z,8.43
2018-07-30T10:46:59.613Z,7.47
2018-07-30T10:49:27.869Z,8.50
2018-07-30T10:51:56.348Z,7.93
2018-07-30T10:54:25.000Z,9.03
2018-07-30T10:56:53.225Z,8.60
2018-07-30T10:59:21.444Z,7.73
2018-07-30T11:01:49.694Z,7.50
2018-07-30T11:04:17.970Z,7.83
2018-07-30T11:06:46.333Z,7.40
2018-07-30T11:09:15.394Z,7.10
2018-07-30T11:11:43.685Z,7.60
2018-07-30T11:14:12.062Z,7.10
2018-07-30T11:16:40.354Z,6.80
2018-07-30T11:19:08.625Z,8.67
2018-07-30T11:21:37.803Z,6.40
2018-07-30T11:24:06.274Z,7.93
2018-07-30T11:26:35.618Z,8.40
2018-07-30T11:29:03.893Z,7.70
2018-07-30T11:31:32.754Z,7.00
2018-07-30T11:34:01.671Z,7.80
2018-07-30T11:36:30.308Z,7.30
2018-07-30T11:38:58.582Z,8.10
2018-07-30T11:41:26.815Z,7.47
2018-07-30T11:43:55.086Z,7.43
2018-07-30T11:46:23.311Z,7.73
2018-07-30T11:48:51.614Z,6.30
2018-07-30T11:51:20.008Z,7.20
2018-07-30T11:53:48.303Z,6.10
2018-07-30T11:56:16.671Z,6.30
2018-07-30T11:58:45.147Z,6.47
2018-07-30T12:01:13.525Z,6.23
2018-07-30T12:03:41.918Z,6.50
2018-07-30T12:06:10.381Z,6.17
2018-07-30T12:08:38.730Z,6.33
2018-07-30T12:11:07.136Z,5.87
2018-07-30T12:13:35.411Z,5.10
2018-07-30T12:16:03.820Z,5.17
2018-07-30T12:18:32.139Z,8.40
2018-07-30T12:21:00.542Z,8.33
2018-07-30T12:23:28.926Z,5.73
2018-07-30T12:25:57.733Z,5.10
2018-07-30T12:28:27.046Z,4.83
2018-07-30T12:30:56.533Z,4.60
2018-07-30T12:33:25.159Z,4.93
2018-07-30T12:35:53.409Z,5.07
2018-07-30T12:38:21.875Z,4.87
2018-07-30T12:40:50.445Z,4.50
2018-07-30T12:43:18.826Z,4.33
2018-07-30T12:45:47.796Z,5.63
2018-07-30T12:48:16.112Z,4.93
2018-07-30T12:50:44.691Z,4.40
2018-07-30T12:53:13.061Z,5.10
2018-07-30T12:55:41.427Z,4.63
2018-07-30T12:58:09.816Z,5.70
2018-07-30T13:00:38.091Z,4.97
2018-07-30T13:03:06.352Z,4.50
2018-07-30T13:05:35.043Z,4.80
2018-07-30T13:08:03.420Z,5.73
2018-07-30T13:10:31.808Z,5.80
2018-07-30T13:13:00.050Z,5.50
2018-07-30T13:15:28.365Z,6.00
2018-07-30T13:17:56.664Z,8.00
2018-07-30T13:20:24.854Z,6.10
2018-07-30T13:22:53.383Z,6.97
2018-07-30T13:25:21.603Z,6.03
2018-07-30T13:27:50.503Z,6.30
2018-07-30T13:30:18.833Z,5.40
2018-07-30T13:32:47.173Z,5.20
2018-07-30T13:35:15.341Z,6.20
2018-07-30T13:37:43.821Z,6.03
2018-07-30T13:40:12.205Z,5.77
2018-07-30T13:42:40.476Z,5.30
2018-07-30T13:45:08.954Z,5.93
2018-07-30T13:47:37.169Z,6.53
2018-07-30T13:50:06.633Z,5.90
2018-07-30T13:52:34.846Z,5.17
2018-07-30T13:55:03.090Z,5.40
2018-07-30T13:57:31.299Z,5.17
2018-07-30T13:59:59.689Z,5.27
2018-07-30T14:02:27.883Z,5.57
2018-07-30T14:04:56.171Z,6.03
2018-07-30T14:07:24.678Z,5.73
2018-07-30T14:09:53.053Z,6.10
2018-07-30T14:12:22.489Z,5.93
2018-07-30T14:14:50.741Z,6.40
2018-07-30T14:17:19.598Z,6.00
2018-07-30T14:19:47.876Z,5.90
2018-07-30T14:22:16.797Z,5.60
2018-07-30T14:24:45.124Z,6.00
2018-07-30T14:27:13.330Z,5.30
2018-07-30T14:29:41.286Z,6.40
2018-07-30T14:32:09.546Z,5.50
2018-07-30T14:34:38.100Z,5.80
2018-07-30T14:37:06.322Z,5.90
2018-07-30T14:39:34.593Z,5.70
2018-07-30T14:42:03.029Z,6.07
2018-07-30T14:44:31.517Z,5.67
2018-07-30T14:46:59.762Z,6.10
2018-07-30T14:49:27.981Z,6.73
2018-07-30T14:51:56.422Z,5.77
2018-07-30T14:54:24.923Z,5.73
2018-07-30T14:56:53.325Z,5.70
2018-07-30T14:59:21.728Z,5.70
2018-07-30T15:01:49.773Z,6.37
2018-07-30T15:04:18.183Z,5.87
2018-07-30T15:06:46.715Z,7.30
2018-07-30T15:09:14.958Z,5.47
2018-07-30T15:11:43.262Z,5.30
2018-07-30T15:14:11.640Z,5.60
2018-07-30T15:16:40.042Z,4.83
2018-07-30T15:19:08.678Z,5.37
2018-07-30T15:21:36.858Z,5.70
2018-07-30T15:24:05.121Z,5.30
2018-07-30T15:26:33.224Z,4.63
2018-07-30T15:29:01.405Z,6.17
2018-07-30T15:31:30.518Z,5.07
2018-07-30T15:33:58.975Z,5.50
2018-07-30T15:36:27.271Z,5.03
2018-07-30T15:38:55.730Z,5.07
2018-07-30T15:41:24.153Z,5.13
2018-07-30T15:43:52.437Z,5.40
2018-07-30T15:46:20.418Z,5.70
2018-07-30T15:48:48.660Z,5.50
2018-07-30T15:51:16.941Z,5.77
2018-07-30T15:53:45.253Z,4.87
2018-07-30T15:56:13.497Z,5.70
2018-07-30T15:58:41.756Z,6.43
2018-07-30T16:01:09.953Z,5.50
2018-07-30T16:03:38.378Z,5.70
2018-07-30T16:06:06.975Z,5.20
2018-07-30T16:08:35.349Z,4.90
2018-07-30T16:11:03.734Z,6.07
2018-07-30T16:13:32.045Z,5.40
2018-07-30T16:16:00.277Z,5.30
2018-07-30T16:18:28.522Z,5.17
2018-07-30T16:20:56.737Z,6.07
2018-07-30T16:23:25.035Z,5.30
2018-07-30T16:25:53.425Z,5.60
2018-07-30T16:28:21.718Z,5.33
2018-07-30T16:30:49.844Z,5.73
2018-07-30T16:33:18.130Z,4.90
2018-07-30T16:35:46.434Z,5.90
2018-07-30T16:38:14.695Z,5.43
2018-07-30T16:40:42.990Z,5.27
2018-07-30T16:43:11.269Z,5.20
2018-07-30T16:45:39.516Z,5.53
2018-07-30T16:48:08.043Z,7.20
2018-07-30T16:50:36.307Z,5.63
2018-07-30T16:53:04.632Z,5.53
2018-07-30T16:55:32.941Z,5.90
2018-07-30T16:58:01.159Z,5.37
2018-07-30T17:00:29.465Z,5.03
2018-07-30T17:02:57.713Z,5.70
2018-07-30T17:05:25.982Z,5.40
2018-07-30T17:07:54.198Z,5.80
2018-07-30T17:10:22.693Z,5.20
2018-07-30T17:12:50.950Z,5.60
2018-07-30T17:15:19.255Z,8.00
2018-07-30T17:17:47.609Z,5.53
2018-07-30T17:20:15.828Z,6.30
2018-07-30T17:22:43.831Z,6.20
2018-07-30T17:25:12.123Z,6.60
2018-07-30T17:27:40.333Z,6.40
2018-07-30T17:30:09.620Z,5.70
2018-07-30T17:32:38.187Z,5.67
2018-07-30T17:35:06.821Z,6.17
2018-07-30T17:37:35.289Z,5.73
2018-07-30T17:40:03.553Z,7.57
2018-07-30T17:42:31.825Z,6.00
2018-07-30T17:45:00.069Z,6.00
2018-07-30T17:47:28.313Z,6.20
2018-07-30T17:49:56.558Z,6.80
2018-07-30T17:52:24.786Z,6.30
2018-07-30T17:54:53.284Z,7.00
2018-07-30T17:57:21.543Z,6.40
2018-07-30T17:59:49.826Z,5.70
2018-07-30T18:02:18.889Z,7.20
2018-07-30T18:04:47.155Z,6.67
2018-07-30T18:07:15.421Z,6.33
2018-07-30T18:09:43.641Z,6.50
2018-07-30T18:12:11.871Z,5.07
2018-07-30T18:14:40.086Z,5.90
2018-07-30T18:17:08.689Z,6.10
2018-07-30T18:19:36.953Z,6.90
2018-07-30T18:22:05.233Z,6.77
2018-07-30T18:24:33.454Z,6.40
2018-07-30T18:27:01.689Z,6.70
2018-07-30T18:29:29.973Z,7.57
2018-07-30T18:31:58.284Z,7.67
2018-07-30T18:34:26.548Z,6.67
2018-07-30T18:36:54.791Z,6.50
2018-07-30T18:39:23.169Z,5.73
2018-07-30T18:41:51.381Z,6.97
2018-07-30T18:44:19.643Z,7.70
2018-07-30T18:46:47.898Z,7.40
2018-07-30T18:49:16.105Z,6.53
2018-07-30T18:51:44.336Z,6.27
2018-07-30T18:54:12.545Z,8.33
2018-07-30T18:56:40.825Z,8.23
2018-07-30T18:59:09.039Z,7.17
2018-07-30T19:01:37.569Z,6.80
2018-07-30T19:04:05.903Z,8.23
2018-07-30T19:06:34.300Z,8.97
2018-07-30T19:09:02.526Z,9.07
2018-07-30T19:11:30.759Z,8.40
2018-07-30T19:13:59.855Z,8.60
2018-07-30T19:16:28.093Z,8.27
2018-07-30T19:18:56.195Z,11.23
2018-07-30T19:21:24.422Z,11.80
2018-07-30T19:23:52.681Z,11.80
2018-07-30T19:26:21.022Z,13.13
2018-07-30T19:28:49.228Z,13.30
2018-07-30T19:31:17.487Z,13.97
2018-07-30T19:33:45.699Z,12.73
2018-07-30T19:36:13.939Z,13.57
2018-07-30T19:38:42.198Z,14.00
2018-07-30T19:41:10.450Z,15.33
2018-07-30T19:43:38.750Z,14.80
2018-07-30T19:46:07.178Z,15.30
2018-07-30T19:48:35.433Z,15.07
2018-07-30T19:51:03.622Z,15.63
2018-07-30T19:53:32.645Z,16.30
2018-07-30T19:56:00.870Z,15.27
2018-07-30T19:58:29.252Z,15.47
2018-07-30T20:00:57.432Z,17.10
2018-07-30T20:03:25.611Z,16.20
2018-07-30T20:05:53.825Z,16.20
2018-07-30T20:08:22.321Z,16.27
2018-07-30T20:10:50.524Z,16.70
2018-07-30T20:13:19.397Z,17.03
2018-07-30T20:15:47.953Z,13.27
2018-07-30T20:18:16.234Z,15.10
2018-07-30T20:20:44.495Z,12.80
2018-07-30T20:23:12.735Z,13.03
2018-07-30T20:25:41.013Z,13.00
2018-07-30T20:28:09.294Z,12.73
2018-07-30T20:30:37.683Z,12.33
2018-07-30T20:33:06.171Z,12.10
2018-07-30T20:35:34.403Z,11.67
2018-07-30T20:38:02.649Z,11.63
2018-07-30T20:40:30.986Z,11.90
2018-07-30T20:42:59.233Z,11.17
2018-07-30T20:45:27.486Z,11.67
2018-07-30T20:47:55.721Z,12.13
2018-07-30T20:50:24.569Z,12.50
2018-07-30T20:52:53.077Z,12.40
2018-07-30T20:55:21.346Z,11.83
2018-07-30T20:57:50.194Z,12.50
2018-07-30T21:00:18.432Z,14.30
2018-07-30T21:02:46.677Z,12.57
2018-07-30T21:05:14.910Z,12.30
2018-07-30T21:07:43.138Z,11.50
2018-07-30T21:10:11.349Z,11.80
2018-07-30T21:12:39.557Z,11.60
2018-07-30T21:15:08.598Z,10.90
2018-07-30T21:17:36.807Z,10.47
2018-07-30T21:20:05.371Z,10.80
2018-07-30T21:22:33.589Z,11.67
2018-07-30T21:25:01.850Z,10.87
2018-07-30T21:27:30.054Z,11.37
2018-07-30T21:29:58.308Z,10.77
2018-07-30T21:32:26.561Z,10.60
2018-07-30T21:34:54.786Z,11.53
2018-07-30T21:38:52.750Z,11.00
2018-07-30T21:41:21.149Z,12.90
2018-07-30T21:43:49.365Z,11.77
2018-07-30T21:46:17.596Z,11.30
2018-07-30T21:48:45.861Z,11.30
2018-07-30T21:51:14.121Z,10.97
2018-07-30T21:53:42.388Z,10.30
2018-07-30T21:56:10.635Z,11.30
2018-07-30T21:58:38.718Z,10.77
2018-07-30T22:01:06.994Z,10.10
2018-07-30T22:03:35.209Z,9.70
2018-07-30T22:06:03.446Z,9.70
2018-07-30T22:08:32.259Z,9.80
2018-07-30T22:11:00.507Z,11.27
2018-07-30T22:13:28.737Z,11.37
2018-07-30T22:15:56.948Z,9.10
2018-07-30T22:18:25.169Z,11.57
2018-07-30T22:20:53.657Z,10.43
2018-07-30T22:23:21.882Z,11.47
2018-07-30T22:25:50.084Z,11.67
2018-07-30T22:28:18.290Z,11.10
2018-07-30T22:30:46.584Z,11.40
2018-07-30T22:33:14.758Z,11.77
2018-07-30T22:35:43.007Z,11.53
2018-07-30T22:38:11.226Z,11.23
2018-07-30T22:40:39.216Z,10.53
2018-07-30T22:43:08.520Z,10.30
2018-07-30T22:45:36.725Z,11.50
2018-07-30T22:48:04.997Z,11.27
2018-07-30T22:50:33.262Z,10.40
2018-07-30T22:53:01.508Z,10.47
2018-07-30T22:55:29.712Z,10.40
2018-07-30T22:57:57.909Z,12.00
2018-07-30T23:00:26.134Z,11.50
2018-07-30T23:02:54.354Z,12.17
2018-07-30T23:05:22.849Z,12.10
2018-07-30T23:07:51.130Z,12.57
2018-07-30T23:10:19.378Z,13.27
2018-07-30T23:12:47.609Z,11.97
2018-07-30T23:15:15.576Z,13.63
2018-07-30T23:17:43.818Z,12.30
2018-07-30T23:20:12.037Z,13.47
2018-07-30T23:22:40.254Z,13.33
2018-07-30T23:25:08.550Z,13.07
2018-07-30T23:27:36.767Z,12.23
2018-07-30T23:30:05.382Z,12.30
2018-07-30T23:32:33.666Z,12.40
2018-07-30T23:35:01.927Z,12.40
2018-07-30T23:37:30.154Z,12.50
2018-07-30T23:39:58.371Z,12.60
2018-07-30T23:42:26.595Z,13.73
2018-07-30T23:44:54.837Z,12.77
2018-07-30T23:47:23.166Z,12.30
2018-07-30T23:49:51.385Z,12.47
2018-07-30T23:52:19.592Z,12.47
2018-07-30T23:54:48.027Z,12.50
2018-07-30T23:57:16.241Z,13.63
2018-07-30T23:59:44.499Z,14.33
